createdAt,value
2023-05-10T00:01:32.436Z,3.27
2023-05-10T00:06:48.555Z,3.35
2023-05-10T00:12:04.790Z,3.31
2023-05-10T00:17:20.874Z,3.33
2023-05-10T00:22:35.771Z,3.29
2023-05-10T00:27:51.261Z,3.41
2023-05-10T00:33:07.491Z,3.64
2023-05-10T00:38:21.744Z,3.4
2023-05-10T00:43:37.215Z,3.54
2023-05-10T00:48:52.723Z,3.5
2023-05-10T00:54:08.258Z,3.72
2023-05-10T00:59:24.401Z,3.89
2023-05-10T01:04:40.271Z,3.65
2023-05-10T01:09:56.142Z,3.81
2023-05-10T01:15:11.577Z,3.66
2023-05-10T01:20:27.760Z,3.64
2023-05-10T01:25:43.308Z,3.73
2023-05-10T01:31:01.021Z,3.7
2023-05-10T01:36:16.879Z,3.74
2023-05-10T01:41:32.413Z,3.71
2023-05-10T01:46:47.532Z,3.79
2023-05-10T01:52:02.149Z,3.76
2023-05-10T01:57:18.388Z,3.51
2023-05-10T02:02:34.746Z,3.81
2023-05-10T02:07:50.013Z,3.67
2023-05-10T02:13:06.404Z,3.6
2023-05-10T02:18:20.409Z,3.52
2023-05-10T02:23:34.792Z,3.35
2023-05-10T02:28:49.592Z,3.42
2023-05-10T03:16:17.700Z,3.4
2023-05-10T03:21:26.052Z,3.46
2023-05-10T03:26:40.919Z,3.45
2023-05-10T03:31:57.367Z,3.36
2023-05-10T03:37:12.578Z,3.6
2023-05-10T03:42:27.453Z,3.68
2023-05-10T03:47:43.277Z,3.64
2023-05-10T03:52:58.493Z,3.89
2023-05-10T03:58:15.303Z,4.02
2023-05-10T04:03:30.902Z,3.95
2023-05-10T04:08:45.669Z,4.04
2023-05-10T04:14:01.214Z,4.11
2023-05-10T04:19:17.408Z,4.04
2023-05-10T04:24:32.366Z,3.88
2023-05-10T04:29:48.396Z,3.96
2023-05-10T04:35:04.709Z,3.98
2023-05-10T04:40:20.764Z,4.06
2023-05-10T04:45:36.860Z,3.83
2023-05-10T04:50:53.059Z,3.98
2023-05-10T04:56:09.290Z,4.07
2023-05-10T05:01:24.672Z,4.24
2023-05-10T05:06:39.038Z,4.35
2023-05-10T05:11:53.871Z,4.32
2023-05-10T05:17:08.751Z,4.61
2023-05-10T05:22:24.892Z,4.53
2023-05-10T05:27:39.188Z,4.49
2023-05-10T05:32:55.536Z,4.31
2023-05-10T05:38:10.832Z,4.51
2023-05-10T05:43:26.970Z,4.74
2023-05-10T05:48:42.463Z,4.69
2023-05-10T05:53:59.303Z,4.65
2023-05-10T05:59:14.174Z,4.57
2023-05-10T06:04:30.176Z,4.73
2023-05-10T06:09:44.633Z,4.61
2023-05-10T06:15:00.774Z,5
2023-05-10T06:20:15.625Z,5.03
2023-05-10T06:25:29.891Z,5.1
2023-05-10T06:30:45.509Z,5.02
2023-05-10T06:36:00.872Z,5.3
2023-05-10T06:41:16.392Z,5.13
2023-05-10T06:46:31.494Z,5.06
2023-05-10T06:51:46.859Z,5.2
2023-05-10T06:57:32.157Z,5.19
2023-05-10T07:02:17.138Z,5
2023-05-10T07:07:32.113Z,5.17
2023-05-10T07:12:48.126Z,5.07
2023-05-10T07:18:04.894Z,5.15
2023-05-10T07:23:18.644Z,5.09
2023-05-10T07:28:34.250Z,5.02
2023-05-10T07:33:50.323Z,5.19
2023-05-10T07:39:05.841Z,5.27
2023-05-10T07:44:20.811Z,5.19
2023-05-10T07:49:36.221Z,5.16
2023-05-10T07:54:51.153Z,5.17
2023-05-10T08:00:07.292Z,5.09
2023-05-10T08:05:23.474Z,4.99
2023-05-10T08:10:38.984Z,5
2023-05-10T08:15:56.093Z,5.02
2023-05-10T08:21:11.971Z,5.21
2023-05-10T08:26:28.158Z,5.33
2023-05-10T08:31:44.072Z,5.16
2023-05-10T08:36:59.798Z,5.13
2023-05-10T08:42:15.292Z,5.29
2023-05-10T08:47:31.023Z,5.48
2023-05-10T08:52:45.703Z,5.22
2023-05-10T08:58:01.180Z,5.05
2023-05-10T09:03:16.115Z,4.79
2023-05-10T09:08:30.987Z,5.1
2023-05-10T09:13:46.503Z,5
2023-05-10T09:19:01.811Z,4.92
2023-05-10T09:24:17.555Z,4.96
2023-05-10T09:29:33.047Z,5.05
2023-05-10T09:34:47.915Z,4.89
2023-05-10T09:40:02.863Z,5.07
2023-05-10T09:45:19.663Z,4.78
2023-05-10T09:50:34.505Z,4.79
2023-05-10T09:55:50.004Z,4.6
2023-05-10T10:01:05.366Z,4.43
2023-05-10T10:06:31.002Z,4.07
2023-05-10T10:11:35.310Z,4.35
2023-05-10T10:17:09.549Z,4.34
2023-05-10T10:22:07.789Z,4.21
2023-05-10T10:27:21.826Z,4.17
2023-05-10T10:32:37.687Z,4.33
2023-05-10T10:37:52.246Z,4.15
2023-05-10T10:43:07.193Z,4.36
2023-05-10T10:48:21.993Z,4.23
2023-05-10T10:53:37.562Z,4.28
2023-05-10T10:58:53.683Z,3.94
2023-05-10T11:04:08.917Z,4.52
2023-05-10T11:09:23.440Z,4.42
2023-05-10T11:14:38.349Z,4.6
2023-05-10T11:19:53.908Z,4.54
2023-05-10T11:25:09.370Z,4.14
2023-05-10T11:30:24.924Z,4.4
2023-05-10T11:35:44.107Z,4.45
2023-05-10T11:40:57.205Z,4.12
2023-05-10T11:46:12.417Z,4.54
2023-05-10T11:51:27.638Z,4.64
2023-05-10T11:56:43.150Z,4.4
2023-05-10T12:01:58.814Z,4.36
2023-05-10T12:07:13.528Z,4.58
2023-05-10T12:12:29.012Z,4.95
2023-05-10T12:17:44.815Z,4.47
2023-05-10T12:23:01.040Z,4.47
2023-05-10T12:28:16.244Z,4.44
2023-05-10T12:33:31.785Z,4.39
2023-05-10T12:38:47.948Z,4.35
2023-05-10T12:44:03.518Z,4.28
2023-05-10T12:49:19.653Z,4.46
2023-05-10T12:54:36.416Z,4.32
2023-05-10T12:59:52.553Z,4.27
2023-05-10T13:05:08.472Z,4.3
2023-05-10T13:10:22.946Z,4.22
2023-05-10T13:15:38.514Z,4.37
2023-05-10T13:21:13.254Z,4.05
2023-05-10T13:26:28.133Z,4.01
2023-05-10T13:31:43.206Z,4.05
2023-05-10T13:36:59.757Z,4.19
2023-05-10T13:42:15.297Z,4.01
2023-05-10T16:24:02.843Z,4.02
2023-05-10T17:37:38.201Z,4.48
2023-05-10T17:42:53.713Z,4.49
2023-05-10T17:48:08.761Z,4.46
2023-05-10T17:53:24.084Z,4.75
2023-05-10T17:58:39.599Z,4.65
2023-05-10T18:03:56.437Z,4.59
2023-05-10T18:09:12.688Z,4.71
2023-05-10T18:14:42.035Z,4.42
2023-05-10T18:19:43.610Z,4.65
2023-05-10T18:24:59.166Z,4.51
2023-05-10T18:30:15.905Z,4.79
2023-05-10T18:35:32.307Z,4.61
